createdAt,value
2018-05-29T00:00:38.764Z,992.15
2018-05-29T00:01:38.942Z,992.10
2018-05-29T00:02:39.120Z,992.10
2018-05-29T00:03:39.300Z,992.07
2018-05-29T00:04:39.483Z,992.08
2018-05-29T00:05:39.662Z,992.09
2018-05-29T00:06:39.844Z,992.08
2018-05-29T00:07:40.021Z,992.11
2018-05-29T00:08:40.192Z,992.14
2018-05-29T00:09:40.419Z,992.08
2018-05-29T00:10:40.590Z,992.08
2018-05-29T00:11:40.768Z,992.12
2018-05-29T00:12:40.953Z,992.13
2018-05-29T00:13:41.124Z,992.15
2018-05-29T00:14:41.303Z,992.18
2018-05-29T00:15:41.493Z,992.15
2018-05-29T00:16:41.677Z,992.16
2018-05-29T00:17:41.860Z,992.11
2018-05-29T00:18:42.035Z,992.12
2018-05-29T00:19:42.216Z,992.07
2018-05-29T00:20:42.395Z,992.08
2018-05-29T00:21:42.569Z,992.02
2018-05-29T00:22:42.748Z,992.03
2018-05-29T00:23:42.922Z,992.02
2018-05-29T00:24:43.098Z,992.00
2018-05-29T00:25:43.269Z,992.00
2018-05-29T00:26:43.451Z,992.00
2018-05-29T00:27:43.621Z,991.94
2018-05-29T00:28:43.804Z,991.95
2018-05-29T00:29:43.998Z,991.93
2018-05-29T00:30:44.180Z,991.91
2018-05-29T00:31:44.350Z,991.89
2018-05-29T00:32:44.526Z,991.92
2018-05-29T00:33:44.699Z,991.91
2018-05-29T00:34:44.884Z,991.91
2018-05-29T00:35:45.067Z,991.92
2018-05-29T00:36:45.252Z,991.94
2018-05-29T00:37:45.435Z,991.90
2018-05-29T00:38:45.604Z,991.87
2018-05-29T00:39:45.787Z,991.89
2018-05-29T00:40:45.961Z,991.87
2018-05-29T00:41:46.140Z,991.87
2018-05-29T00:42:46.325Z,991.86
2018-05-29T00:43:46.509Z,991.82
2018-05-29T00:44:46.695Z,991.83
2018-05-29T00:45:46.868Z,991.80
2018-05-29T00:46:47.052Z,991.77
2018-05-29T00:47:47.234Z,991.78
2018-05-29T00:48:47.424Z,991.75
2018-05-29T00:49:47.601Z,991.71
2018-05-29T00:50:47.784Z,991.74
2018-05-29T00:51:47.965Z,991.68
2018-05-29T00:52:48.141Z,991.68
2018-05-29T00:53:48.326Z,991.67
2018-05-29T00:54:48.497Z,991.67
2018-05-29T00:55:48.666Z,991.62
2018-05-29T00:56:48.847Z,991.62
2018-05-29T00:57:49.027Z,991.62
2018-05-29T00:58:49.211Z,991.65
2018-05-29T00:59:49.389Z,991.63
2018-05-29T01:00:49.566Z,991.61
2018-05-29T01:01:49.751Z,991.63
2018-05-29T01:02:49.939Z,991.55
2018-05-29T01:03:50.116Z,991.55
2018-05-29T01:04:50.298Z,991.53
2018-05-29T01:05:50.467Z,991.50
2018-05-29T01:06:50.645Z,991.50
2018-05-29T01:07:50.818Z,991.49
2018-05-29T01:08:50.995Z,991.50
2018-05-29T01:09:51.175Z,991.49
2018-05-29T01:10:51.360Z,991.49
2018-05-29T01:11:51.535Z,991.42
2018-05-29T01:12:51.716Z,991.42
2018-05-29T01:13:51.896Z,991.44
2018-05-29T01:14:52.070Z,991.43
2018-05-29T01:15:52.247Z,991.43
2018-05-29T01:16:52.419Z,991.42
2018-05-29T01:17:52.604Z,991.46
2018-05-29T01:18:52.783Z,991.45
2018-05-29T01:19:52.960Z,991.47
2018-05-29T01:20:53.140Z,991.46
2018-05-29T01:21:53.323Z,991.51
2018-05-29T01:22:53.504Z,991.45
2018-05-29T01:23:53.679Z,991.45
2018-05-29T01:24:53.860Z,991.44
2018-05-29T01:25:54.042Z,991.46
2018-05-29T01:26:54.218Z,991.42
2018-05-29T01:27:54.390Z,991.43
2018-05-29T01:28:54.567Z,991.40
2018-05-29T01:29:54.746Z,991.40
2018-05-29T01:30:54.940Z,991.38
2018-05-29T01:31:55.112Z,991.40
2018-05-29T01:32:55.291Z,991.38
2018-05-29T01:33:55.473Z,991.42
2018-05-29T01:34:55.643Z,991.43
2018-05-29T01:35:55.823Z,991.47
2018-05-29T01:36:56.005Z,991.41
2018-05-29T01:37:56.179Z,991.45
2018-05-29T01:38:56.367Z,991.41
2018-05-29T01:39:56.538Z,991.39
2018-05-29T01:40:56.726Z,991.37
2018-05-29T01:41:56.904Z,991.36
2018-05-29T01:42:57.073Z,991.37
2018-05-29T01:43:57.252Z,991.35
2018-05-29T01:44:57.437Z,991.40
2018-05-29T01:45:57.624Z,991.35
2018-05-29T01:46:57.800Z,991.34
2018-05-29T01:47:57.973Z,991.39
2018-05-29T01:48:58.144Z,991.32
2018-05-29T01:49:58.328Z,991.35
2018-05-29T01:50:58.502Z,991.38
2018-05-29T01:51:58.672Z,991.35
2018-05-29T01:52:58.859Z,991.38
2018-05-29T01:53:59.028Z,991.33
2018-05-29T01:54:59.213Z,991.34
2018-05-29T01:55:59.392Z,991.34
2018-05-29T01:56:59.578Z,991.33
2018-05-29T01:57:59.760Z,991.34
2018-05-29T01:58:59.992Z,991.33
2018-05-29T02:00:00.135Z,991.36
2018-05-29T02:01:00.326Z,991.37
2018-05-29T02:02:00.505Z,991.34
2018-05-29T02:03:00.684Z,991.34
2018-05-29T02:04:00.866Z,991.36
2018-05-29T02:05:01.036Z,991.34
2018-05-29T02:06:01.218Z,991.30
2018-05-29T02:07:01.393Z,991.32
2018-05-29T02:08:01.562Z,991.26
2018-05-29T02:09:01.745Z,991.25
2018-05-29T02:10:01.939Z,991.25
2018-05-29T02:11:02.115Z,991.28
2018-05-29T02:12:02.284Z,991.23
2018-05-29T02:13:02.469Z,991.21
2018-05-29T02:14:02.645Z,991.20
2018-05-29T02:15:02.828Z,991.22
2018-05-29T02:16:03.004Z,991.22
2018-05-29T02:17:03.174Z,991.21
2018-05-29T02:18:03.349Z,991.22
2018-05-29T02:19:03.526Z,991.24
2018-05-29T02:20:03.699Z,991.22
2018-05-29T02:21:03.882Z,991.23
2018-05-29T02:22:04.058Z,991.23
2018-05-29T02:23:04.232Z,991.23
2018-05-29T02:24:04.410Z,991.23
2018-05-29T02:25:04.589Z,991.23
2018-05-29T02:26:04.762Z,991.25
2018-05-29T02:27:04.950Z,991.26
2018-05-29T02:28:05.123Z,991.24
2018-05-29T02:29:05.304Z,991.20
2018-05-29T02:30:05.477Z,991.25
2018-05-29T02:31:05.657Z,991.27
2018-05-29T02:32:05.832Z,991.27
2018-05-29T02:33:06.010Z,991.28
2018-05-29T02:34:06.192Z,991.35
2018-05-29T02:35:06.376Z,991.31
2018-05-29T02:36:06.567Z,991.32
2018-05-29T02:37:06.753Z,991.36
2018-05-29T02:38:06.930Z,991.33
2018-05-29T02:39:07.109Z,991.31
2018-05-29T02:40:07.291Z,991.27
2018-05-29T02:41:07.950Z,991.30
2018-05-29T02:42:07.671Z,991.24
2018-05-29T02:43:07.850Z,991.26
2018-05-29T02:44:08.030Z,991.26
2018-05-29T02:45:08.204Z,991.28
2018-05-29T02:46:08.382Z,991.29
2018-05-29T02:47:08.563Z,991.33
2018-05-29T02:48:08.738Z,991.38
2018-05-29T02:49:08.923Z,991.40
2018-05-29T02:50:09.089Z,991.42
2018-05-29T02:51:09.272Z,991.45
2018-05-29T02:52:09.444Z,991.44
2018-05-29T02:53:09.618Z,991.46
2018-05-29T02:54:09.801Z,991.42
2018-05-29T02:55:09.983Z,991.42
2018-05-29T02:56:10.157Z,991.42
2018-05-29T02:57:10.333Z,991.39
2018-05-29T02:58:10.510Z,991.45
2018-05-29T02:59:10.703Z,991.45
2018-05-29T03:00:10.869Z,991.48
2018-05-29T03:01:11.046Z,991.47
2018-05-29T03:02:11.214Z,991.51
2018-05-29T03:03:11.394Z,991.49
2018-05-29T03:04:11.571Z,991.47
2018-05-29T03:05:11.748Z,991.53
2018-05-29T03:06:11.936Z,991.54
2018-05-29T03:07:12.105Z,991.48
2018-05-29T03:08:12.276Z,991.50
2018-05-29T03:09:12.450Z,991.47
2018-05-29T03:10:12.628Z,991.42
2018-05-29T03:11:12.809Z,991.45
2018-05-29T03:12:12.983Z,991.40
2018-05-29T03:13:13.168Z,991.43
2018-05-29T03:14:13.343Z,991.41
2018-05-29T03:15:13.519Z,991.38
2018-05-29T03:16:13.699Z,991.34
2018-05-29T03:17:13.885Z,991.39
2018-05-29T03:18:14.056Z,991.40
2018-05-29T03:19:14.231Z,991.40
2018-05-29T03:20:14.412Z,991.39
2018-05-29T03:21:14.583Z,991.45
2018-05-29T03:22:14.765Z,991.43
2018-05-29T03:23:14.938Z,991.42
2018-05-29T03:24:15.107Z,991.45
2018-05-29T03:25:15.288Z,991.37
2018-05-29T03:26:15.461Z,991.34
2018-05-29T03:27:15.642Z,991.33
2018-05-29T03:28:15.828Z,991.33
2018-05-29T03:29:16.004Z,991.25
2018-05-29T03:30:16.356Z,991.23
2018-05-29T03:31:16.623Z,991.24
2018-05-29T03:32:17.149Z,991.23
2018-05-29T03:33:20.774Z,991.19
2018-05-29T03:34:16.869Z,991.24
2018-05-29T03:35:17.039Z,991.24
2018-05-29T03:36:17.217Z,991.22
2018-05-29T03:37:17.398Z,991.24
2018-05-29T03:38:17.585Z,991.23
2018-05-29T03:39:17.766Z,991.23
2018-05-29T03:40:17.940Z,991.21
2018-05-29T03:41:18.121Z,991.30
2018-05-29T03:42:18.329Z,991.24
2018-05-29T03:43:18.487Z,991.25
2018-05-29T03:44:18.680Z,991.29
2018-05-29T03:45:18.856Z,991.31
2018-05-29T03:46:19.033Z,991.26
2018-05-29T03:47:19.206Z,991.23
2018-05-29T03:48:19.381Z,991.23
2018-05-29T03:49:19.560Z,991.21
2018-05-29T03:50:19.737Z,991.19
2018-05-29T03:51:19.955Z,991.23
2018-05-29T03:52:20.088Z,991.23
2018-05-29T03:53:20.269Z,991.25
2018-05-29T03:54:20.467Z,991.25
2018-05-29T03:55:20.643Z,991.23
2018-05-29T03:56:20.831Z,991.25
2018-05-29T03:57:21.009Z,991.21
2018-05-29T03:58:21.184Z,991.21
2018-05-29T03:59:21.358Z,991.22
2018-05-29T04:00:21.527Z,991.20
2018-05-29T04:01:27.885Z,991.20
2018-05-29T04:02:23.401Z,991.29
2018-05-29T04:03:26.275Z,991.27
2018-05-29T04:04:26.666Z,991.28
2018-05-29T04:05:22.415Z,991.28
2018-05-29T04:06:22.588Z,991.37
2018-05-29T04:07:22.761Z,991.39
2018-05-29T04:08:22.944Z,991.39
2018-05-29T04:09:23.145Z,991.38
2018-05-29T04:10:23.310Z,991.37
2018-05-29T04:11:23.487Z,991.36
2018-05-29T04:12:23.673Z,991.35
2018-05-29T04:13:23.848Z,991.31
2018-05-29T04:14:24.023Z,991.28
2018-05-29T04:15:24.212Z,991.24
2018-05-29T04:16:24.392Z,991.22
2018-05-29T04:17:24.571Z,991.20
2018-05-29T04:18:24.749Z,991.19
2018-05-29T04:19:24.933Z,991.22
2018-05-29T04:20:25.111Z,991.22
2018-05-29T04:21:25.317Z,991.23
2018-05-29T04:22:25.482Z,991.18
2018-05-29T04:23:25.668Z,991.23
2018-05-29T04:24:25.850Z,991.25
2018-05-29T04:25:26.032Z,991.24
2018-05-29T04:26:26.219Z,991.19
2018-05-29T04:27:26.410Z,991.20
2018-05-29T04:28:26.659Z,991.21
2018-05-29T04:29:26.768Z,991.24
2018-05-29T04:30:26.951Z,991.22
2018-05-29T04:31:27.135Z,991.28
2018-05-29T04:32:27.347Z,991.23
2018-05-29T04:33:27.546Z,991.18
2018-05-29T04:34:27.739Z,991.15
2018-05-29T04:35:27.921Z,991.12
2018-05-29T04:36:28.118Z,991.11
2018-05-29T04:37:28.299Z,991.12
2018-05-29T04:38:28.477Z,991.16
2018-05-29T04:39:28.865Z,991.22
2018-05-29T04:40:28.771Z,991.22
2018-05-29T04:41:30.445Z,991.22
2018-05-29T04:42:31.964Z,991.22
2018-05-29T04:43:30.640Z,991.24
2018-05-29T04:44:32.360Z,991.23
2018-05-29T04:45:31.351Z,991.20
2018-05-29T04:46:32.585Z,991.23
2018-05-29T04:47:31.924Z,991.20
2018-05-29T04:48:31.268Z,991.22
2018-05-29T04:49:32.113Z,991.21
2018-05-29T04:50:30.551Z,991.17
2018-05-29T04:51:31.433Z,991.16
2018-05-29T04:52:32.441Z,991.16
2018-05-29T04:53:34.108Z,991.16
2018-05-29T04:54:34.955Z,991.17
2018-05-29T04:55:33.577Z,991.18
2018-05-29T04:56:35.543Z,991.19
2018-05-29T04:57:32.673Z,991.14
2018-05-29T04:58:33.891Z,991.15
2018-05-29T04:59:31.872Z,991.14
2018-05-29T05:00:32.062Z,991.14
2018-05-29T05:01:32.238Z,991.15
2018-05-29T05:02:32.424Z,991.20
2018-05-29T05:03:32.598Z,991.21
2018-05-29T05:04:32.768Z,991.24
2018-05-29T05:05:32.952Z,991.25
2018-05-29T05:06:33.129Z,991.23
2018-05-29T05:07:33.311Z,991.19
2018-05-29T05:08:33.503Z,991.13
2018-05-29T05:09:33.681Z,991.11
2018-05-29T05:10:33.876Z,991.08
2018-05-29T05:11:34.049Z,991.04
2018-05-29T05:12:34.240Z,991.11
2018-05-29T05:13:34.429Z,991.18
2018-05-29T05:14:34.612Z,991.21
2018-05-29T05:15:34.800Z,991.25
2018-05-29T05:16:34.977Z,991.27
2018-05-29T05:17:35.156Z,991.26
2018-05-29T05:18:35.345Z,991.23
2018-05-29T05:19:35.523Z,991.24
2018-05-29T05:20:35.706Z,991.20
2018-05-29T05:21:35.882Z,991.18
2018-05-29T05:22:36.091Z,991.16
2018-05-29T05:23:36.328Z,991.15
2018-05-29T05:24:36.458Z,991.13
2018-05-29T05:25:36.643Z,991.11
2018-05-29T05:26:41.157Z,991.13
2018-05-29T05:27:38.964Z,991.11
2018-05-29T05:28:37.182Z,991.13
2018-05-29T05:29:37.356Z,991.08
2018-05-29T05:30:37.541Z,991.04
2018-05-29T05:31:37.720Z,991.04
2018-05-29T05:32:37.895Z,991.00
2018-05-29T05:33:38.073Z,991.02
2018-05-29T05:34:38.260Z,990.98
2018-05-29T05:35:38.460Z,990.98
2018-05-29T05:36:38.636Z,990.98
2018-05-29T05:37:38.826Z,990.99
2018-05-29T05:38:39.000Z,990.97
2018-05-29T05:39:39.181Z,990.99
2018-05-29T05:40:39.368Z,990.93
2018-05-29T05:41:39.547Z,990.92
2018-05-29T05:42:39.734Z,990.93
2018-05-29T05:43:39.909Z,990.99
2018-05-29T05:44:40.085Z,991.03
2018-05-29T05:45:40.266Z,991.04
2018-05-29T05:46:40.437Z,991.01
2018-05-29T05:47:40.618Z,990.98
2018-05-29T05:48:41.325Z,991.03
2018-05-29T05:49:43.510Z,990.99
2018-05-29T05:50:44.368Z,990.93
2018-05-29T05:51:41.236Z,990.92
2018-05-29T05:52:41.420Z,990.98
2018-05-29T05:53:41.590Z,991.00
2018-05-29T05:54:41.765Z,991.08
2018-05-29T05:55:41.948Z,991.10
2018-05-29T05:56:42.129Z,991.14
2018-05-29T05:57:42.305Z,991.22
2018-05-29T05:58:42.492Z,991.28
2018-05-29T05:59:42.669Z,991.39
2018-05-29T06:00:42.851Z,991.55
2018-05-29T06:01:43.037Z,991.87
2018-05-29T06:02:43.218Z,992.13
2018-05-29T06:03:43.397Z,992.26
2018-05-29T06:04:43.580Z,992.26
2018-05-29T06:05:43.759Z,992.31
2018-05-29T06:06:44.009Z,992.39
2018-05-29T06:07:44.064Z,992.37
2018-05-29T06:08:44.243Z,992.30
2018-05-29T06:09:44.422Z,992.17
2018-05-29T06:10:44.601Z,992.11
2018-05-29T06:11:44.779Z,992.10
2018-05-29T06:12:44.961Z,992.18
2018-05-29T06:13:45.151Z,992.21
2018-05-29T06:14:45.342Z,992.25
2018-05-29T06:15:45.531Z,992.26
2018-05-29T06:16:45.718Z,992.31
2018-05-29T06:17:45.901Z,992.37
2018-05-29T06:18:46.084Z,992.58
2018-05-29T06:19:46.270Z,992.62
2018-05-29T06:20:46.467Z,992.64
2018-05-29T06:21:46.661Z,992.67
2018-05-29T06:22:46.837Z,992.68
2018-05-29T06:23:47.030Z,992.73
2018-05-29T06:24:47.211Z,992.80
2018-05-29T06:25:47.406Z,992.81
2018-05-29T06:26:47.587Z,992.79
2018-05-29T06:27:47.774Z,992.71
2018-05-29T06:28:47.961Z,992.69
2018-05-29T06:29:48.156Z,992.61
2018-05-29T06:30:48.355Z,992.60
2018-05-29T06:31:48.544Z,992.57
2018-05-29T06:32:48.770Z,992.55
2018-05-29T06:33:48.922Z,992.53
2018-05-29T06:34:49.118Z,992.49
2018-05-29T06:35:49.308Z,992.45
2018-05-29T06:36:49.497Z,992.40
2018-05-29T06:37:49.687Z,992.36
2018-05-29T06:38:49.889Z,992.32
2018-05-29T06:39:50.075Z,992.31
2018-05-29T06:40:50.271Z,992.31
2018-05-29T06:41:50.457Z,992.28
2018-05-29T06:42:50.648Z,992.33
2018-05-29T06:43:50.840Z,992.27
2018-05-29T06:44:51.081Z,992.22
2018-05-29T06:45:51.262Z,992.22
2018-05-29T06:46:51.446Z,992.24
2018-05-29T06:47:51.635Z,992.26
2018-05-29T06:48:51.838Z,992.34
2018-05-29T06:49:52.015Z,992.30
2018-05-29T06:50:52.194Z,992.32
2018-05-29T06:51:52.387Z,992.31
2018-05-29T06:52:52.573Z,992.33
2018-05-29T06:53:52.772Z,992.35
2018-05-29T06:54:52.972Z,992.32
2018-05-29T06:55:53.167Z,992.32
2018-05-29T06:56:53.350Z,992.32
2018-05-29T06:57:53.542Z,992.33
2018-05-29T06:58:53.761Z,992.38
2018-05-29T06:59:53.956Z,992.45
2018-05-29T07:00:54.151Z,992.40
2018-05-29T07:01:54.355Z,992.39
2018-05-29T07:02:54.547Z,992.37
2018-05-29T07:03:54.946Z,992.38
2018-05-29T07:04:54.947Z,992.41
2018-05-29T07:05:55.139Z,992.39
2018-05-29T07:06:55.329Z,992.44
2018-05-29T07:07:55.516Z,992.48
2018-05-29T07:08:55.706Z,992.50
2018-05-29T07:09:55.912Z,992.51
2018-05-29T07:10:56.101Z,992.44
2018-05-29T07:11:56.298Z,992.41
2018-05-29T07:12:56.559Z,992.38
2018-05-29T07:13:56.728Z,992.39
2018-05-29T07:14:56.913Z,992.37
2018-05-29T07:15:57.106Z,992.35
2018-05-29T07:16:57.301Z,992.36
2018-05-29T07:17:57.488Z,992.36
2018-05-29T07:18:57.679Z,992.33
2018-05-29T07:19:57.882Z,992.28
2018-05-29T07:20:58.066Z,992.26
2018-05-29T07:21:58.259Z,992.31
2018-05-29T07:22:58.631Z,992.32
2018-05-29T07:23:58.606Z,992.33
2018-05-29T07:24:58.936Z,992.30
2018-05-29T07:25:59.015Z,992.30
2018-05-29T07:26:59.263Z,992.26
2018-05-29T07:27:59.343Z,992.26
2018-05-29T07:28:59.537Z,992.32
2018-05-29T07:29:59.729Z,992.27
2018-05-29T07:30:59.920Z,992.30
2018-05-29T07:32:00.121Z,992.25
2018-05-29T07:33:00.319Z,992.24
2018-05-29T07:34:00.519Z,992.21
2018-05-29T07:35:00.718Z,992.22
2018-05-29T07:36:00.929Z,992.15
2018-05-29T07:37:01.427Z,992.14
2018-05-29T07:38:01.348Z,992.11
2018-05-29T07:39:02.471Z,992.13
2018-05-29T07:40:01.720Z,992.12
2018-05-29T07:41:01.908Z,992.09
2018-05-29T07:42:02.211Z,992.06
2018-05-29T07:43:02.723Z,992.03
2018-05-29T07:44:02.421Z,992.03
2018-05-29T07:45:04.454Z,992.02
2018-05-29T07:46:02.807Z,992.00
2018-05-29T07:47:02.997Z,991.99
2018-05-29T07:48:03.198Z,992.00
2018-05-29T07:49:05.148Z,992.00
2018-05-29T07:50:04.130Z,991.97
2018-05-29T07:51:03.753Z,991.99
2018-05-29T07:52:04.018Z,991.98
2018-05-29T07:53:04.158Z,991.97
2018-05-29T07:54:04.361Z,991.95
2018-05-29T07:55:04.871Z,991.96
2018-05-29T07:56:05.406Z,991.93
2018-05-29T07:57:06.421Z,991.89
2018-05-29T07:58:05.010Z,991.87
2018-05-29T07:59:05.203Z,991.87
2018-05-29T08:00:05.403Z,991.86
2018-05-29T08:01:05.599Z,991.86
2018-05-29T08:02:05.843Z,991.83
2018-05-29T08:03:05.915Z,991.85
2018-05-29T08:04:06.108Z,991.88
2018-05-29T08:05:06.319Z,991.85
2018-05-29T08:06:06.508Z,991.83
2018-05-29T08:07:06.708Z,991.80
2018-05-29T08:08:06.898Z,991.79
2018-05-29T08:09:07.085Z,991.79
2018-05-29T08:10:07.290Z,991.81
2018-05-29T08:11:07.489Z,991.78
2018-05-29T08:12:07.672Z,991.81
2018-05-29T08:13:07.874Z,991.75
2018-05-29T08:14:08.072Z,991.71
2018-05-29T08:15:08.263Z,991.70
2018-05-29T08:16:08.457Z,991.64
2018-05-29T08:17:08.650Z,991.62
2018-05-29T08:18:08.851Z,991.66
2018-05-29T08:19:09.041Z,991.62
2018-05-29T08:20:09.225Z,991.66
2018-05-29T08:21:09.426Z,991.63
2018-05-29T08:22:09.619Z,991.66
2018-05-29T08:23:09.828Z,991.66
2018-05-29T08:24:10.017Z,991.65
2018-05-29T08:25:10.218Z,991.66
2018-05-29T08:26:10.415Z,991.66
2018-05-29T08:27:10.616Z,991.66
2018-05-29T08:28:10.861Z,991.65
2018-05-29T08:29:11.008Z,991.63
2018-05-29T08:30:11.201Z,991.60
2018-05-29T08:31:11.395Z,991.58
2018-05-29T08:32:11.591Z,991.61
2018-05-29T08:33:11.782Z,991.56
2018-05-29T08:34:11.980Z,991.55
2018-05-29T08:35:12.181Z,991.57
2018-05-29T08:36:12.377Z,991.51
2018-05-29T08:37:12.574Z,991.53
2018-05-29T08:38:12.769Z,991.52
2018-05-29T08:39:12.975Z,991.52
2018-05-29T08:40:13.176Z,991.50
2018-05-29T08:41:13.364Z,991.49
2018-05-29T08:42:13.574Z,991.52
2018-05-29T08:43:13.762Z,991.47
2018-05-29T08:44:13.976Z,991.48
2018-05-29T08:45:14.177Z,991.46
2018-05-29T08:46:14.376Z,991.41
2018-05-29T08:47:14.584Z,991.38
2018-05-29T08:48:14.781Z,991.43
2018-05-29T08:49:14.974Z,991.40
2018-05-29T08:50:15.171Z,991.41
2018-05-29T08:51:15.373Z,991.39
2018-05-29T08:52:15.568Z,991.37
2018-05-29T08:53:15.758Z,991.36
2018-05-29T08:54:15.961Z,991.35
2018-05-29T08:55:16.155Z,991.38
2018-05-29T08:56:16.345Z,991.34
2018-05-29T08:57:16.612Z,991.34
2018-05-29T08:58:16.764Z,991.36
2018-05-29T08:59:16.957Z,991.32
2018-05-29T09:00:17.150Z,991.33
2018-05-29T09:01:17.346Z,991.36
2018-05-29T09:02:17.534Z,991.33
2018-05-29T09:03:17.760Z,991.34
2018-05-29T09:04:17.957Z,991.34
2018-05-29T09:05:18.138Z,991.33
2018-05-29T09:06:18.348Z,991.34
2018-05-29T09:07:18.528Z,991.33
2018-05-29T09:08:18.726Z,991.35
2018-05-29T09:09:18.923Z,991.37
2018-05-29T09:10:19.112Z,991.30
2018-05-29T09:11:19.309Z,991.32
2018-05-29T09:12:19.496Z,991.30
2018-05-29T09:13:19.695Z,991.36
2018-05-29T09:14:19.892Z,991.28
2018-05-29T09:15:20.155Z,991.30
2018-05-29T09:16:20.373Z,991.28
2018-05-29T09:17:20.509Z,991.29
2018-05-29T09:18:21.016Z,991.31
2018-05-29T09:19:20.837Z,991.30
2018-05-29T09:20:22.598Z,991.33
2018-05-29T09:21:23.017Z,991.27
2018-05-29T09:22:21.345Z,991.30
2018-05-29T09:23:21.540Z,991.31
2018-05-29T09:24:21.733Z,991.30
2018-05-29T09:25:21.934Z,991.28
2018-05-29T09:26:22.135Z,991.30
2018-05-29T09:27:22.321Z,991.24
2018-05-29T09:28:22.561Z,991.27
2018-05-29T09:29:22.715Z,991.27
2018-05-29T09:30:23.078Z,991.24
2018-05-29T09:31:23.126Z,991.25
2018-05-29T09:32:23.451Z,991.23
2018-05-29T09:33:23.479Z,991.21
2018-05-29T09:34:23.672Z,991.26
2018-05-29T09:35:23.923Z,991.21
2018-05-29T09:36:24.075Z,991.21
2018-05-29T09:37:24.323Z,991.21
2018-05-29T09:38:24.478Z,991.20
2018-05-29T09:39:24.677Z,991.18
2018-05-29T09:40:24.869Z,991.18
2018-05-29T09:41:25.068Z,991.14
2018-05-29T09:42:27.057Z,991.17
2018-05-29T09:43:26.839Z,991.14
2018-05-29T09:44:25.621Z,991.13
2018-05-29T09:45:26.062Z,991.10
2018-05-29T09:46:26.734Z,991.09
2018-05-29T09:47:26.225Z,991.09
2018-05-29T09:48:26.490Z,991.09
2018-05-29T09:49:27.074Z,991.12
2018-05-29T09:50:26.729Z,991.10
2018-05-29T09:51:26.922Z,991.11
2018-05-29T09:52:27.215Z,991.06
2018-05-29T09:53:27.252Z,991.09
2018-05-29T09:54:27.449Z,991.04
2018-05-29T09:55:27.658Z,991.07
2018-05-29T09:56:32.900Z,991.03
2018-05-29T09:57:28.273Z,991.03
2018-05-29T09:58:28.273Z,991.06
2018-05-29T09:59:28.476Z,990.98
2018-05-29T10:00:28.685Z,990.93
2018-05-29T10:01:28.878Z,990.93
2018-05-29T10:02:29.111Z,990.91
2018-05-29T10:03:29.310Z,990.88
2018-05-29T10:04:29.519Z,990.84
2018-05-29T10:05:29.708Z,990.80
2018-05-29T10:06:29.923Z,990.75
2018-05-29T10:07:30.109Z,990.77
2018-05-29T10:08:30.297Z,990.70
2018-05-29T10:09:30.484Z,990.67
2018-05-29T10:10:30.673Z,990.65
2018-05-29T10:11:30.865Z,990.55
2018-05-29T10:12:31.079Z,990.53
2018-05-29T10:13:31.274Z,990.40
2018-05-29T10:14:31.465Z,990.37
2018-05-29T10:15:31.668Z,990.29
2018-05-29T10:16:31.863Z,990.30
2018-05-29T10:17:32.050Z,990.29
2018-05-29T10:18:32.239Z,990.24
2018-05-29T10:19:32.440Z,990.17
2018-05-29T10:20:32.631Z,990.13
2018-05-29T10:21:32.820Z,990.06
2018-05-29T10:22:33.008Z,990.03
2018-05-29T10:23:33.203Z,989.98
2018-05-29T10:24:33.399Z,989.96
2018-05-29T10:25:33.592Z,989.92
2018-05-29T10:26:33.782Z,989.91
2018-05-29T10:27:33.974Z,989.92
2018-05-29T10:28:34.161Z,989.96
2018-05-29T10:29:34.349Z,989.89
2018-05-29T10:30:34.544Z,989.91
2018-05-29T10:31:34.735Z,989.92
2018-05-29T10:32:34.922Z,989.97
2018-05-29T10:33:35.121Z,989.96
2018-05-29T10:34:35.308Z,989.93
2018-05-29T10:35:35.509Z,989.93
2018-05-29T10:36:35.690Z,989.84
2018-05-29T10:37:35.878Z,989.86
2018-05-29T10:38:36.077Z,989.84
2018-05-29T10:39:36.264Z,989.87
2018-05-29T10:40:36.673Z,989.82
2018-05-29T10:41:36.575Z,989.82
2018-05-29T10:42:36.761Z,989.85
2018-05-29T10:43:36.963Z,989.86
2018-05-29T10:44:37.135Z,989.84
2018-05-29T10:45:37.325Z,989.87
2018-05-29T10:46:37.520Z,989.91
2018-05-29T10:47:37.708Z,989.87
2018-05-29T10:48:37.895Z,989.85
2018-05-29T10:49:38.085Z,989.89
2018-05-29T10:50:38.284Z,989.86
2018-05-29T10:51:38.534Z,989.83
2018-05-29T10:52:38.656Z,989.83
2018-05-29T10:53:38.839Z,989.81
2018-05-29T10:54:39.024Z,989.82
2018-05-29T10:55:39.212Z,989.80
2018-05-29T10:56:39.400Z,989.78
2018-05-29T10:57:39.591Z,989.73
2018-05-29T10:58:39.802Z,989.76
2018-05-29T10:59:40.005Z,989.73
2018-05-29T11:00:40.204Z,989.82
2018-05-29T11:01:40.393Z,989.81
2018-05-29T11:02:40.582Z,989.80
2018-05-29T11:03:40.764Z,989.81
2018-05-29T11:04:40.962Z,989.75
2018-05-29T11:05:41.139Z,989.78
2018-05-29T11:06:41.326Z,989.77
2018-05-29T11:07:41.514Z,989.72
2018-05-29T11:08:42.698Z,989.78
2018-05-29T11:09:41.888Z,989.75
2018-05-29T11:10:43.404Z,989.74
2018-05-29T11:11:42.449Z,989.76
2018-05-29T11:12:42.734Z,989.74
2018-05-29T11:13:42.837Z,989.77
2018-05-29T11:14:42.770Z,989.76
2018-05-29T11:15:43.322Z,989.78
2018-05-29T11:16:43.514Z,989.72
2018-05-29T11:17:44.889Z,989.72
2018-05-29T11:18:43.466Z,989.72
2018-05-29T11:19:43.898Z,989.68
2018-05-29T11:20:43.841Z,989.66
2018-05-29T11:21:44.172Z,989.67
2018-05-29T11:22:44.289Z,989.62
2018-05-29T11:23:44.680Z,989.63
2018-05-29T11:24:44.859Z,989.63
2018-05-29T11:25:44.691Z,989.64
2018-05-29T11:26:44.886Z,989.67
2018-05-29T11:27:45.072Z,989.68
2018-05-29T11:28:45.257Z,989.62
2018-05-29T11:29:45.450Z,989.60
2018-05-29T11:30:45.640Z,989.59
2018-05-29T11:31:45.834Z,989.58
2018-05-29T11:32:46.027Z,989.60
2018-05-29T11:33:46.211Z,989.55
2018-05-29T11:34:46.395Z,989.46
2018-05-29T11:35:46.596Z,989.46
2018-05-29T11:36:46.792Z,989.42
2018-05-29T11:37:47.399Z,989.43
2018-05-29T11:38:47.120Z,989.45
2018-05-29T11:39:47.303Z,989.40
2018-05-29T11:40:47.501Z,989.38
2018-05-29T11:41:47.698Z,989.32
2018-05-29T11:42:47.890Z,989.32
2018-05-29T11:43:48.104Z,989.36
2018-05-29T11:44:51.309Z,989.35
2018-05-29T11:45:48.520Z,989.30
2018-05-29T11:46:48.609Z,989.31
2018-05-29T11:47:48.766Z,989.24
2018-05-29T11:48:49.065Z,989.23
2018-05-29T11:49:49.200Z,989.23
2018-05-29T11:50:49.311Z,989.19
2018-05-29T11:51:49.413Z,989.18
2018-05-29T11:52:49.703Z,989.15
2018-05-29T11:53:49.746Z,989.12
2018-05-29T11:54:50.032Z,989.09
2018-05-29T11:55:50.439Z,989.10
2018-05-29T11:56:50.309Z,989.03
2018-05-29T11:57:50.573Z,989.02
2018-05-29T11:58:50.647Z,989.02
2018-05-29T11:59:52.247Z,989.03
2018-05-29T12:00:50.966Z,989.03
2018-05-29T12:01:51.212Z,989.02
2018-05-29T12:02:51.374Z,989.06
2018-05-29T12:03:51.539Z,989.11
2018-05-29T12:04:52.108Z,989.14
2018-05-29T12:05:51.921Z,989.15
2018-05-29T12:06:52.106Z,989.16
2018-05-29T12:07:52.306Z,989.17
2018-05-29T12:08:52.487Z,989.13
2018-05-29T12:09:52.682Z,989.16
2018-05-29T12:10:52.864Z,989.17
2018-05-29T12:11:53.391Z,989.16
2018-05-29T12:12:53.235Z,989.15
2018-05-29T12:13:53.537Z,989.15
2018-05-29T12:14:53.599Z,989.10
2018-05-29T12:15:53.784Z,989.11
2018-05-29T12:16:53.990Z,989.10
2018-05-29T12:17:54.159Z,989.10
2018-05-29T12:18:54.350Z,989.11
2018-05-29T12:19:54.535Z,989.09
2018-05-29T12:20:54.730Z,989.06
2018-05-29T12:21:54.933Z,989.04
2018-05-29T12:22:55.126Z,989.00
2018-05-29T12:23:55.339Z,989.03
2018-05-29T12:24:55.524Z,989.05
2018-05-29T12:25:55.723Z,989.08
2018-05-29T12:26:55.915Z,989.08
2018-05-29T12:27:56.107Z,989.12
2018-05-29T12:28:56.296Z,989.14
2018-05-29T12:29:56.487Z,989.14
2018-05-29T12:30:56.708Z,989.11